sensor_id;sensor_type;location;lat;lon;timestamp;P1;durP1;ratioP1;P2;durP2;ratioP2
75220;SDS011;63802;53.232;6.570;2023-10-09T00:01:07;7.28;;;2.65;;
75220;SDS011;63802;53.232;6.570;2023-10-09T00:03:41;8.45;;;3.08;;
75220;SDS011;63802;53.232;6.570;2023-10-09T00:06:08;7.80;;;2.70;;
75220;SDS011;63802;53.232;6.570;2023-10-09T00:08:39;8.98;;;3.40;;
75220;SDS011;63802;53.232;6.570;2023-10-09T00:11:15;7.95;;;2.92;;
75220;SDS011;63802;53.232;6.570;2023-10-09T00:13:44;8.07;;;3.25;;
75220;SDS011;63802;53.232;6.570;2023-10-09T00:16:26;9.07;;;3.42;;
75220;SDS011;63802;53.232;6.570;2023-10-09T00:19:09;7.65;;;3.17;;
75220;SDS011;63802;53.232;6.570;2023-10-09T00:21:46;10.27;;;3.28;;
75220;SDS011;63802;53.232;6.570;2023-10-09T00:24:20;9.38;;;3.13;;
75220;SDS011;63802;53.232;6.570;2023-10-09T00:26:54;11.63;;;3.47;;
75220;SDS011;63802;53.232;6.570;2023-10-09T00:29:44;11.35;;;3.50;;
75220;SDS011;63802;53.232;6.570;2023-10-09T00:32:11;8.65;;;3.60;;
75220;SDS011;63802;53.232;6.570;2023-10-09T00:34:54;9.13;;;3.70;;
75220;SDS011;63802;53.232;6.570;2023-10-09T00:37:23;10.15;;;3.80;;
75220;SDS011;63802;53.232;6.570;2023-10-09T00:39:56;10.65;;;3.55;;
75220;SDS011;63802;53.232;6.570;2023-10-09T00:42:24;9.07;;;3.72;;
75220;SDS011;63802;53.232;6.570;2023-10-09T00:44:55;17.48;;;4.38;;
75220;SDS011;63802;53.232;6.570;2023-10-09T00:47:32;10.38;;;4.13;;
75220;SDS011;63802;53.232;6.570;2023-10-09T00:50:14;9.65;;;3.97;;
75220;SDS011;63802;53.232;6.570;2023-10-09T00:52:47;13.30;;;3.90;;
75220;SDS011;63802;53.232;6.570;2023-10-09T00:55:19;9.75;;;4.13;;
75220;SDS011;63802;53.232;6.570;2023-10-09T00:57:50;10.93;;;4.65;;
75220;SDS011;63802;53.232;6.570;2023-10-09T01:00:24;11.75;;;4.57;;
75220;SDS011;63802;53.232;6.570;2023-10-09T01:02:59;11.25;;;4.30;;
75220;SDS011;63802;53.232;6.570;2023-10-09T01:05:46;14.18;;;4.65;;
75220;SDS011;63802;53.232;6.570;2023-10-09T01:08:34;15.25;;;4.85;;
75220;SDS011;63802;53.232;6.570;2023-10-09T01:11:13;14.73;;;4.80;;
75220;SDS011;63802;53.232;6.570;2023-10-09T01:13:50;16.60;;;5.32;;
75220;SDS011;63802;53.232;6.570;2023-10-09T01:16:37;16.92;;;4.95;;
75220;SDS011;63802;53.232;6.570;2023-10-09T01:22:14;15.05;;;4.95;;
75220;SDS011;63802;53.232;6.570;2023-10-09T01:24:49;17.83;;;6.05;;
75220;SDS011;63802;53.232;6.570;2023-10-09T01:27:20;13.70;;;5.38;;
75220;SDS011;63802;53.232;6.570;2023-10-09T01:29:49;15.88;;;5.38;;
75220;SDS011;63802;53.232;6.570;2023-10-09T01:32:16;19.27;;;5.78;;
75220;SDS011;63802;53.232;6.570;2023-10-09T01:34:44;17.95;;;6.03;;
75220;SDS011;63802;53.232;6.570;2023-10-09T01:37:14;20.02;;;6.70;;
75220;SDS011;63802;53.232;6.570;2023-10-09T01:39:51;18.08;;;5.63;;
75220;SDS011;63802;53.232;6.570;2023-10-09T01:42:18;26.40;;;6.93;;
75220;SDS011;63802;53.232;6.570;2023-10-09T01:45:02;17.50;;;6.53;;
75220;SDS011;63802;53.232;6.570;2023-10-09T01:47:51;19.63;;;6.93;;
75220;SDS011;63802;53.232;6.570;2023-10-09T01:50:16;19.75;;;6.80;;
75220;SDS011;63802;53.232;6.570;2023-10-09T01:52:55;21.13;;;7.40;;
75220;SDS011;63802;53.232;6.570;2023-10-09T01:55:21;23.35;;;7.55;;
75220;SDS011;63802;53.232;6.570;2023-10-09T01:58:01;26.25;;;7.70;;
75220;SDS011;63802;53.232;6.570;2023-10-09T02:00:47;26.10;;;8.07;;
75220;SDS011;63802;53.232;6.570;2023-10-09T02:03:18;23.58;;;8.55;;
75220;SDS011;63802;53.232;6.570;2023-10-09T02:05:48;21.80;;;7.35;;
75220;SDS011;63802;53.232;6.570;2023-10-09T02:08:15;25.50;;;8.18;;
75220;SDS011;63802;53.232;6.570;2023-10-09T02:10:46;24.15;;;8.50;;
75220;SDS011;63802;53.232;6.570;2023-10-09T02:13:13;30.13;;;9.93;;
75220;SDS011;63802;53.232;6.570;2023-10-09T02:15:57;29.85;;;8.88;;
75220;SDS011;63802;53.232;6.570;2023-10-09T02:18:40;24.67;;;8.30;;
75220;SDS011;63802;53.232;6.570;2023-10-09T02:21:21;26.20;;;9.27;;
75220;SDS011;63802;53.232;6.570;2023-10-09T02:24:07;25.70;;;9.52;;
75220;SDS011;63802;53.232;6.570;2023-10-09T02:26:51;30.15;;;9.80;;
75220;SDS011;63802;53.232;6.570;2023-10-09T02:29:17;28.70;;;10.25;;
75220;SDS011;63802;53.232;6.570;2023-10-09T02:31:45;30.05;;;9.90;;
75220;SDS011;63802;53.232;6.570;2023-10-09T02:34:28;26.92;;;9.65;;
75220;SDS011;63802;53.232;6.570;2023-10-09T02:37:03;30.38;;;10.32;;
75220;SDS011;63802;53.232;6.570;2023-10-09T02:39:36;32.40;;;10.65;;
75220;SDS011;63802;53.232;6.570;2023-10-09T02:42:17;34.00;;;10.07;;
75220;SDS011;63802;53.232;6.570;2023-10-09T02:44:48;25.38;;;9.95;;
75220;SDS011;63802;53.232;6.570;2023-10-09T02:47:16;28.55;;;12.10;;
75220;SDS011;63802;53.232;6.570;2023-10-09T02:49:48;34.97;;;10.77;;
75220;SDS011;63802;53.232;6.570;2023-10-09T02:52:17;28.27;;;10.60;;
75220;SDS011;63802;53.232;6.570;2023-10-09T02:54:59;35.30;;;12.32;;
75220;SDS011;63802;53.232;6.570;2023-10-09T02:57:26;31.17;;;11.20;;
75220;SDS011;63802;53.232;6.570;2023-10-09T03:00:01;31.15;;;10.70;;
75220;SDS011;63802;53.232;6.570;2023-10-09T03:02:29;33.83;;;11.48;;
75220;SDS011;63802;53.232;6.570;2023-10-09T03:04:57;36.00;;;11.75;;
75220;SDS011;63802;53.232;6.570;2023-10-09T03:07:24;37.58;;;13.00;;
75220;SDS011;63802;53.232;6.570;2023-10-09T03:09:50;28.63;;;11.45;;
75220;SDS011;63802;53.232;6.570;2023-10-09T03:12:15;33.33;;;12.95;;
75220;SDS011;63802;53.232;6.570;2023-10-09T03:14:44;34.75;;;12.73;;
75220;SDS011;63802;53.232;6.570;2023-10-09T03:17:09;31.77;;;12.07;;
75220;SDS011;63802;53.232;6.570;2023-10-09T03:19:38;35.70;;;11.97;;
75220;SDS011;63802;53.232;6.570;2023-10-09T03:22:05;31.75;;;12.90;;
75220;SDS011;63802;53.232;6.570;2023-10-09T03:24:35;34.78;;;13.63;;
75220;SDS011;63802;53.232;6.570;2023-10-09T03:27:07;36.78;;;13.57;;
75220;SDS011;63802;53.232;6.570;2023-10-09T03:29:33;38.95;;;12.95;;
75220;SDS011;63802;53.232;6.570;2023-10-09T03:31:58;37.65;;;13.15;;
75220;SDS011;63802;53.232;6.570;2023-10-09T03:34:25;35.92;;;13.45;;
75220;SDS011;63802;53.232;6.570;2023-10-09T03:36:50;38.58;;;12.95;;
75220;SDS011;63802;53.232;6.570;2023-10-09T03:39:31;36.63;;;12.88;;
75220;SDS011;63802;53.232;6.570;2023-10-09T03:42:06;32.63;;;11.95;;
75220;SDS011;63802;53.232;6.570;2023-10-09T03:44:37;40.38;;;13.93;;
75220;SDS011;63802;53.232;6.570;2023-10-09T03:47:07;36.28;;;13.77;;
75220;SDS011;63802;53.232;6.570;2023-10-09T03:49:36;36.75;;;14.15;;
75220;SDS011;63802;53.232;6.570;2023-10-09T03:52:04;42.30;;;14.73;;
75220;SDS011;63802;53.232;6.570;2023-10-09T03:54:34;40.20;;;14.57;;
75220;SDS011;63802;53.232;6.570;2023-10-09T03:57:14;39.65;;;14.98;;
75220;SDS011;63802;53.232;6.570;2023-10-09T03:59:45;43.28;;;15.52;;
75220;SDS011;63802;53.232;6.570;2023-10-09T04:02:21;43.10;;;15.05;;
75220;SDS011;63802;53.232;6.570;2023-10-09T04:04:47;40.85;;;14.15;;
75220;SDS011;63802;53.232;6.570;2023-10-09T04:07:15;41.80;;;15.65;;
75220;SDS011;63802;53.232;6.570;2023-10-09T04:09:44;44.83;;;16.25;;
75220;SDS011;63802;53.232;6.570;2023-10-09T04:12:35;42.13;;;15.40;;
75220;SDS011;63802;53.232;6.570;2023-10-09T04:15:04;46.30;;;15.27;;
75220;SDS011;63802;53.232;6.570;2023-10-09T04:17:31;46.22;;;15.95;;
75220;SDS011;63802;53.232;6.570;2023-10-09T04:20:01;49.75;;;15.43;;
75220;SDS011;63802;53.232;6.570;2023-10-09T04:22:43;35.50;;;13.65;;
75220;SDS011;63802;53.232;6.570;2023-10-09T04:25:35;41.80;;;14.75;;
75220;SDS011;63802;53.232;6.570;2023-10-09T04:28:15;44.42;;;15.02;;
75220;SDS011;63802;53.232;6.570;2023-10-09T04:30:44;36.88;;;13.45;;
75220;SDS011;63802;53.232;6.570;2023-10-09T04:33:20;39.65;;;14.60;;
75220;SDS011;63802;53.232;6.570;2023-10-09T04:36:08;39.53;;;15.45;;
75220;SDS011;63802;53.232;6.570;2023-10-09T04:38:46;38.25;;;14.55;;
75220;SDS011;63802;53.232;6.570;2023-10-09T04:41:27;34.65;;;14.05;;
75220;SDS011;63802;53.232;6.570;2023-10-09T04:43:54;35.53;;;13.93;;
75220;SDS011;63802;53.232;6.570;2023-10-09T04:46:40;41.42;;;15.10;;
75220;SDS011;63802;53.232;6.570;2023-10-09T04:49:34;39.83;;;14.70;;
75220;SDS011;63802;53.232;6.570;2023-10-09T04:52:13;35.78;;;13.70;;
75220;SDS011;63802;53.232;6.570;2023-10-09T04:55:05;34.90;;;14.70;;
75220;SDS011;63802;53.232;6.570;2023-10-09T04:57:38;41.53;;;14.52;;
75220;SDS011;63802;53.232;6.570;2023-10-09T05:00:11;37.53;;;13.32;;
75220;SDS011;63802;53.232;6.570;2023-10-09T05:03:01;36.08;;;14.48;;
75220;SDS011;63802;53.232;6.570;2023-10-09T05:05:46;33.13;;;12.60;;
75220;SDS011;63802;53.232;6.570;2023-10-09T05:08:12;37.67;;;13.82;;
75220;SDS011;63802;53.232;6.570;2023-10-09T05:13:31;34.92;;;12.60;;
75220;SDS011;63802;53.232;6.570;2023-10-09T05:16:03;32.40;;;11.60;;
75220;SDS011;63802;53.232;6.570;2023-10-09T05:18:28;31.67;;;12.52;;
75220;SDS011;63802;53.232;6.570;2023-10-09T05:21:01;35.25;;;13.30;;
75220;SDS011;63802;53.232;6.570;2023-10-09T05:23:41;31.52;;;13.30;;
75220;SDS011;63802;53.232;6.570;2023-10-09T05:26:17;33.38;;;12.10;;
75220;SDS011;63802;53.232;6.570;2023-10-09T05:29:02;33.13;;;12.18;;
75220;SDS011;63802;53.232;6.570;2023-10-09T05:31:44;33.67;;;11.65;;
75220;SDS011;63802;53.232;6.570;2023-10-09T05:34:20;31.67;;;11.60;;
75220;SDS011;63802;53.232;6.570;2023-10-09T05:36:46;30.13;;;12.45;;
75220;SDS011;63802;53.232;6.570;2023-10-09T05:39:13;28.42;;;11.57;;
75220;SDS011;63802;53.232;6.570;2023-10-09T05:41:46;32.08;;;11.38;;
75220;SDS011;63802;53.232;6.570;2023-10-09T05:44:12;28.58;;;11.43;;
75220;SDS011;63802;53.232;6.570;2023-10-09T05:46:55;31.92;;;10.88;;
75220;SDS011;63802;53.232;6.570;2023-10-09T05:49:39;28.70;;;10.88;;
75220;SDS011;63802;53.232;6.570;2023-10-09T05:52:12;31.00;;;10.50;;
75220;SDS011;63802;53.232;6.570;2023-10-09T05:54:56;25.73;;;9.70;;
75220;SDS011;63802;53.232;6.570;2023-10-09T05:57:41;33.15;;;10.82;;
75220;SDS011;63802;53.232;6.570;2023-10-09T06:00:25;25.85;;;9.18;;
75220;SDS011;63802;53.232;6.570;2023-10-09T06:03:10;26.75;;;9.40;;
75220;SDS011;63802;53.232;6.570;2023-10-09T06:05:48;21.10;;;9.40;;
75220;SDS011;63802;53.232;6.570;2023-10-09T06:08:21;24.05;;;8.77;;
75220;SDS011;63802;53.232;6.570;2023-10-09T06:11:06;33.55;;;9.20;;
75220;SDS011;63802;53.232;6.570;2023-10-09T06:13:56;22.15;;;8.38;;
75220;SDS011;63802;53.232;6.570;2023-10-09T06:16:30;26.10;;;8.85;;
75220;SDS011;63802;53.232;6.570;2023-10-09T06:19:04;24.65;;;8.85;;
75220;SDS011;63802;53.232;6.570;2023-10-09T06:21:40;22.45;;;8.05;;
75220;SDS011;63802;53.232;6.570;2023-10-09T06:24:25;23.92;;;8.50;;
75220;SDS011;63802;53.232;6.570;2023-10-09T06:26:58;22.17;;;7.93;;
75220;SDS011;63802;53.232;6.570;2023-10-09T06:29:27;23.63;;;7.50;;
75220;SDS011;63802;53.232;6.570;2023-10-09T06:32:17;22.83;;;8.23;;
75220;SDS011;63802;53.232;6.570;2023-10-09T06:34:47;23.15;;;8.00;;
75220;SDS011;63802;53.232;6.570;2023-10-09T06:37:20;25.75;;;8.35;;
75220;SDS011;63802;53.232;6.570;2023-10-09T06:39:49;24.27;;;8.45;;
75220;SDS011;63802;53.232;6.570;2023-10-09T06:42:15;22.85;;;7.65;;
75220;SDS011;63802;53.232;6.570;2023-10-09T06:45:13;19.05;;;7.60;;
75220;SDS011;63802;53.232;6.570;2023-10-09T06:47:39;19.27;;;7.47;;
75220;SDS011;63802;53.232;6.570;2023-10-09T06:50:18;22.65;;;7.97;;
75220;SDS011;63802;53.232;6.570;2023-10-09T06:52:47;20.30;;;7.90;;
75220;SDS011;63802;53.232;6.570;2023-10-09T06:55:40;21.50;;;7.65;;
75220;SDS011;63802;53.232;6.570;2023-10-09T06:58:26;22.58;;;8.30;;
75220;SDS011;63802;53.232;6.570;2023-10-09T07:00:52;22.13;;;8.02;;
75220;SDS011;63802;53.232;6.570;2023-10-09T07:03:27;23.83;;;7.72;;
75220;SDS011;63802;53.232;6.570;2023-10-09T07:06:06;20.17;;;7.90;;
75220;SDS011;63802;53.232;6.570;2023-10-09T07:08:38;24.42;;;8.02;;
75220;SDS011;63802;53.232;6.570;2023-10-09T07:11:15;20.10;;;7.28;;
75220;SDS011;63802;53.232;6.570;2023-10-09T07:14:14;23.05;;;7.32;;
75220;SDS011;63802;53.232;6.570;2023-10-09T07:16:57;19.40;;;7.75;;
75220;SDS011;63802;53.232;6.570;2023-10-09T07:19:40;21.60;;;7.47;;
75220;SDS011;63802;53.232;6.570;2023-10-09T07:22:12;25.60;;;7.03;;
75220;SDS011;63802;53.232;6.570;2023-10-09T07:27:25;18.85;;;7.20;;
75220;SDS011;63802;53.232;6.570;2023-10-09T07:30:14;19.53;;;7.17;;
75220;SDS011;63802;53.232;6.570;2023-10-09T07:35:48;21.13;;;7.47;;
75220;SDS011;63802;53.232;6.570;2023-10-09T07:38:25;19.23;;;7.40;;
75220;SDS011;63802;53.232;6.570;2023-10-09T07:41:00;18.25;;;7.22;;
75220;SDS011;63802;53.232;6.570;2023-10-09T07:43:38;20.10;;;6.85;;
75220;SDS011;63802;53.232;6.570;2023-10-09T07:46:04;21.73;;;7.35;;
75220;SDS011;63802;53.232;6.570;2023-10-09T07:48:52;19.42;;;7.68;;
75220;SDS011;63802;53.232;6.570;2023-10-09T07:51:21;20.40;;;7.85;;
75220;SDS011;63802;53.232;6.570;2023-10-09T07:53:59;25.08;;;7.95;;
75220;SDS011;63802;53.232;6.570;2023-10-09T07:56:37;24.00;;;7.32;;
75220;SDS011;63802;53.232;6.570;2023-10-09T07:59:10;22.38;;;7.63;;
75220;SDS011;63802;53.232;6.570;2023-10-09T08:01:42;20.02;;;7.55;;
75220;SDS011;63802;53.232;6.570;2023-10-09T08:04:20;22.13;;;6.70;;
75220;SDS011;63802;53.232;6.570;2023-10-09T08:07:10;21.23;;;7.47;;
75220;SDS011;63802;53.232;6.570;2023-10-09T08:10:03;22.35;;;6.90;;
75220;SDS011;63802;53.232;6.570;2023-10-09T08:12:38;17.25;;;7.07;;
75220;SDS011;63802;53.232;6.570;2023-10-09T08:15:18;21.30;;;6.93;;
75220;SDS011;63802;53.232;6.570;2023-10-09T08:17:44;27.88;;;7.93;;
75220;SDS011;63802;53.232;6.570;2023-10-09T08:20:20;23.83;;;7.85;;
75220;SDS011;63802;53.232;6.570;2023-10-09T08:22:50;19.27;;;7.15;;
75220;SDS011;63802;53.232;6.570;2023-10-09T08:25:17;19.02;;;7.10;;
75220;SDS011;63802;53.232;6.570;2023-10-09T08:28:00;23.50;;;7.63;;
75220;SDS011;63802;53.232;6.570;2023-10-09T08:30:39;16.17;;;6.90;;
75220;SDS011;63802;53.232;6.570;2023-10-09T08:33:18;22.10;;;7.00;;
75220;SDS011;63802;53.232;6.570;2023-10-09T08:35:53;25.95;;;7.30;;
75220;SDS011;63802;53.232;6.570;2023-10-09T08:38:32;20.23;;;7.25;;
75220;SDS011;63802;53.232;6.570;2023-10-09T08:41:08;20.98;;;7.30;;
75220;SDS011;63802;53.232;6.570;2023-10-09T08:43:50;25.88;;;7.50;;
75220;SDS011;63802;53.232;6.570;2023-10-09T08:46:20;20.58;;;6.93;;
75220;SDS011;63802;53.232;6.570;2023-10-09T08:48:47;24.13;;;8.18;;
75220;SDS011;63802;53.232;6.570;2023-10-09T08:51:13;20.33;;;6.85;;
75220;SDS011;63802;53.232;6.570;2023-10-09T08:53:39;22.05;;;6.90;;
75220;SDS011;63802;53.232;6.570;2023-10-09T08:56:11;20.50;;;6.67;;
75220;SDS011;63802;53.232;6.570;2023-10-09T08:58:40;26.25;;;7.10;;
75220;SDS011;63802;53.232;6.570;2023-10-09T09:01:06;20.05;;;7.30;;
75220;SDS011;63802;53.232;6.570;2023-10-09T09:03:38;24.70;;;7.20;;
75220;SDS011;63802;53.232;6.570;2023-10-09T09:06:06;21.95;;;7.30;;
75220;SDS011;63802;53.232;6.570;2023-10-09T09:08:32;26.35;;;8.02;;
75220;SDS011;63802;53.232;6.570;2023-10-09T09:11:07;24.23;;;6.43;;
75220;SDS011;63802;53.232;6.570;2023-10-09T09:16:09;19.73;;;7.03;;
75220;SDS011;63802;53.232;6.570;2023-10-09T09:18:58;24.20;;;6.45;;
75220;SDS011;63802;53.232;6.570;2023-10-09T09:21:37;20.17;;;6.38;;
75220;SDS011;63802;53.232;6.570;2023-10-09T09:24:08;19.58;;;6.53;;
75220;SDS011;63802;53.232;6.570;2023-10-09T09:26:42;14.10;;;5.78;;
75220;SDS011;63802;53.232;6.570;2023-10-09T09:31:37;18.65;;;6.05;;
75220;SDS011;63802;53.232;6.570;2023-10-09T09:34:06;15.68;;;6.70;;
75220;SDS011;63802;53.232;6.570;2023-10-09T09:36:50;17.42;;;6.95;;
75220;SDS011;63802;53.232;6.570;2023-10-09T09:39:23;15.00;;;6.35;;
75220;SDS011;63802;53.232;6.570;2023-10-09T09:41:55;16.02;;;5.68;;
75220;SDS011;63802;53.232;6.570;2023-10-09T09:44:22;17.85;;;6.65;;
75220;SDS011;63802;53.232;6.570;2023-10-09T09:46:56;18.75;;;6.68;;
75220;SDS011;63802;53.232;6.570;2023-10-09T09:49:25;14.25;;;5.35;;
75220;SDS011;63802;53.232;6.570;2023-10-09T09:52:05;20.85;;;6.15;;
75220;SDS011;63802;53.232;6.570;2023-10-09T09:54:35;24.98;;;7.40;;
75220;SDS011;63802;53.232;6.570;2023-10-09T09:57:03;20.20;;;6.00;;
75220;SDS011;63802;53.232;6.570;2023-10-09T09:59:37;20.75;;;6.70;;
75220;SDS011;63802;53.232;6.570;2023-10-09T10:02:18;17.77;;;5.47;;
75220;SDS011;63802;53.232;6.570;2023-10-09T10:04:50;18.65;;;6.15;;
75220;SDS011;63802;53.232;6.570;2023-10-09T10:07:22;16.50;;;5.38;;
75220;SDS011;63802;53.232;6.570;2023-10-09T10:09:50;15.63;;;5.57;;
75220;SDS011;63802;53.232;6.570;2023-10-09T10:12:52;17.45;;;5.20;;
75220;SDS011;63802;53.232;6.570;2023-10-09T10:15:29;18.67;;;5.43;;
75220;SDS011;63802;53.232;6.570;2023-10-09T10:18:23;15.02;;;5.35;;
75220;SDS011;63802;53.232;6.570;2023-10-09T10:24:01;15.73;;;5.13;;
75220;SDS011;63802;53.232;6.570;2023-10-09T10:26:36;22.20;;;5.70;;
75220;SDS011;63802;53.232;6.570;2023-10-09T10:29:20;18.63;;;4.93;;
75220;SDS011;63802;53.232;6.570;2023-10-09T10:32:02;18.83;;;5.03;;
75220;SDS011;63802;53.232;6.570;2023-10-09T10:34:54;22.30;;;5.68;;
75220;SDS011;63802;53.232;6.570;2023-10-09T10:37:36;13.68;;;5.22;;
75220;SDS011;63802;53.232;6.570;2023-10-09T10:40:28;19.30;;;5.63;;
75220;SDS011;63802;53.232;6.570;2023-10-09T10:43:17;16.70;;;5.07;;
75220;SDS011;63802;53.232;6.570;2023-10-09T10:46:05;17.35;;;4.75;;
75220;SDS011;63802;53.232;6.570;2023-10-09T10:48:54;13.88;;;5.13;;
75220;SDS011;63802;53.232;6.570;2023-10-09T10:51:35;14.57;;;5.20;;
75220;SDS011;63802;53.232;6.570;2023-10-09T10:54:07;14.95;;;5.72;;
75220;SDS011;63802;53.232;6.570;2023-10-09T10:57:20;18.73;;;5.18;;
75220;SDS011;63802;53.232;6.570;2023-10-09T11:00:27;11.20;;;4.65;;
75220;SDS011;63802;53.232;6.570;2023-10-09T11:03:21;14.68;;;5.10;;
75220;SDS011;63802;53.232;6.570;2023-10-09T11:06:06;16.38;;;5.10;;
75220;SDS011;63802;53.232;6.570;2023-10-09T11:08:46;12.00;;;4.43;;
75220;SDS011;63802;53.232;6.570;2023-10-09T11:11:22;14.93;;;5.30;;
75220;SDS011;63802;53.232;6.570;2023-10-09T11:13:48;11.68;;;4.60;;
75220;SDS011;63802;53.232;6.570;2023-10-09T11:16:19;14.77;;;4.65;;
75220;SDS011;63802;53.232;6.570;2023-10-09T11:19:05;14.80;;;5.00;;
75220;SDS011;63802;53.232;6.570;2023-10-09T11:21:48;13.90;;;4.95;;
75220;SDS011;63802;53.232;6.570;2023-10-09T11:24:30;18.92;;;5.05;;
75220;SDS011;63802;53.232;6.570;2023-10-09T11:27:02;16.40;;;4.97;;
75220;SDS011;63802;53.232;6.570;2023-10-09T11:29:52;14.30;;;4.85;;
75220;SDS011;63802;53.232;6.570;2023-10-09T11:32:26;16.02;;;5.18;;
75220;SDS011;63802;53.232;6.570;2023-10-09T11:35:12;19.17;;;4.88;;
75220;SDS011;63802;53.232;6.570;2023-10-09T11:37:56;12.82;;;4.45;;
75220;SDS011;63802;53.232;6.570;2023-10-09T11:40:28;17.15;;;3.72;;
75220;SDS011;63802;53.232;6.570;2023-10-09T11:46:24;13.32;;;4.60;;
75220;SDS011;63802;53.232;6.570;2023-10-09T11:49:27;10.90;;;3.60;;
75220;SDS011;63802;53.232;6.570;2023-10-09T11:52:09;12.45;;;3.97;;
75220;SDS011;63802;53.232;6.570;2023-10-09T11:54:34;16.67;;;4.20;;
75220;SDS011;63802;53.232;6.570;2023-10-09T11:57:03;6.72;;;3.15;;
75220;SDS011;63802;53.232;6.570;2023-10-09T11:59:32;15.57;;;3.72;;
75220;SDS011;63802;53.232;6.570;2023-10-09T12:02:11;12.50;;;3.75;;
75220;SDS011;63802;53.232;6.570;2023-10-09T12:04:41;8.23;;;3.08;;
75220;SDS011;63802;53.232;6.570;2023-10-09T12:07:09;12.13;;;3.20;;
75220;SDS011;63802;53.232;6.570;2023-10-09T12:09:38;12.43;;;3.33;;
75220;SDS011;63802;53.232;6.570;2023-10-09T12:12:21;12.77;;;3.78;;
75220;SDS011;63802;53.232;6.570;2023-10-09T12:14:51;14.88;;;3.90;;
75220;SDS011;63802;53.232;6.570;2023-10-09T12:17:18;12.93;;;3.53;;
75220;SDS011;63802;53.232;6.570;2023-10-09T12:19:50;15.18;;;4.10;;
75220;SDS011;63802;53.232;6.570;2023-10-09T12:22:16;11.43;;;3.60;;
75220;SDS011;63802;53.232;6.570;2023-10-09T12:24:46;12.25;;;3.50;;
75220;SDS011;63802;53.232;6.570;2023-10-09T12:27:13;9.02;;;3.50;;
75220;SDS011;63802;53.232;6.570;2023-10-09T12:29:38;15.88;;;4.18;;
75220;SDS011;63802;53.232;6.570;2023-10-09T12:32:09;11.63;;;3.75;;
75220;SDS011;63802;53.232;6.570;2023-10-09T12:34:36;11.45;;;3.83;;
75220;SDS011;63802;53.232;6.570;2023-10-09T12:37:10;11.52;;;3.00;;
75220;SDS011;63802;53.232;6.570;2023-10-09T12:39:38;10.25;;;3.53;;
75220;SDS011;63802;53.232;6.570;2023-10-09T12:42:05;11.43;;;3.53;;
75220;SDS011;63802;53.232;6.570;2023-10-09T12:44:34;11.23;;;3.57;;
75220;SDS011;63802;53.232;6.570;2023-10-09T12:47:09;11.25;;;3.58;;
75220;SDS011;63802;53.232;6.570;2023-10-09T12:49:37;11.35;;;4.00;;
75220;SDS011;63802;53.232;6.570;2023-10-09T12:52:06;9.50;;;3.85;;
75220;SDS011;63802;53.232;6.570;2023-10-09T12:54:40;10.00;;;3.58;;
75220;SDS011;63802;53.232;6.570;2023-10-09T12:57:07;8.15;;;3.53;;
75220;SDS011;63802;53.232;6.570;2023-10-09T12:59:38;10.20;;;3.30;;
75220;SDS011;63802;53.232;6.570;2023-10-09T13:02:05;10.90;;;3.25;;
75220;SDS011;63802;53.232;6.570;2023-10-09T13:04:31;19.70;;;5.00;;
75220;SDS011;63802;53.232;6.570;2023-10-09T13:06:59;12.77;;;4.10;;
75220;SDS011;63802;53.232;6.570;2023-10-09T13:09:33;10.38;;;3.53;;
75220;SDS011;63802;53.232;6.570;2023-10-09T13:12:08;9.48;;;3.35;;
75220;SDS011;63802;53.232;6.570;2023-10-09T13:14:46;8.88;;;3.08;;
75220;SDS011;63802;53.232;6.570;2023-10-09T13:17:14;9.77;;;3.07;;
75220;SDS011;63802;53.232;6.570;2023-10-09T13:19:40;10.20;;;3.63;;
75220;SDS011;63802;53.232;6.570;2023-10-09T13:22:05;9.15;;;3.15;;
75220;SDS011;63802;53.232;6.570;2023-10-09T13:24:37;12.13;;;3.33;;
75220;SDS011;63802;53.232;6.570;2023-10-09T13:27:06;8.27;;;2.83;;
75220;SDS011;63802;53.232;6.570;2023-10-09T13:29:35;9.18;;;2.80;;
75220;SDS011;63802;53.232;6.570;2023-10-09T13:32:07;6.75;;;3.00;;
75220;SDS011;63802;53.232;6.570;2023-10-09T13:34:43;12.50;;;3.57;;
75220;SDS011;63802;53.232;6.570;2023-10-09T13:37:14;7.72;;;3.00;;
75220;SDS011;63802;53.232;6.570;2023-10-09T13:39:44;6.15;;;2.53;;
75220;SDS011;63802;53.232;6.570;2023-10-09T13:42:21;12.20;;;2.78;;
75220;SDS011;63802;53.232;6.570;2023-10-09T13:44:51;10.38;;;3.67;;
75220;SDS011;63802;53.232;6.570;2023-10-09T13:47:18;10.05;;;3.10;;
75220;SDS011;63802;53.232;6.570;2023-10-09T13:49:48;10.82;;;3.47;;
75220;SDS011;63802;53.232;6.570;2023-10-09T13:52:20;10.05;;;3.20;;
75220;SDS011;63802;53.232;6.570;2023-10-09T13:54:47;9.35;;;3.40;;
75220;SDS011;63802;53.232;6.570;2023-10-09T13:57:15;9.38;;;3.03;;
75220;SDS011;63802;53.232;6.570;2023-10-09T13:59:47;6.95;;;2.60;;
75220;SDS011;63802;53.232;6.570;2023-10-09T14:02:15;7.50;;;3.35;;
75220;SDS011;63802;53.232;6.570;2023-10-09T14:04:46;12.85;;;3.25;;
75220;SDS011;63802;53.232;6.570;2023-10-09T14:12:20;14.10;;;2.78;;
75220;SDS011;63802;53.232;6.570;2023-10-09T14:14:47;13.20;;;2.72;;
75220;SDS011;63802;53.232;6.570;2023-10-09T14:17:16;6.60;;;2.35;;
75220;SDS011;63802;53.232;6.570;2023-10-09T14:19:50;11.13;;;2.92;;
75220;SDS011;63802;53.232;6.570;2023-10-09T14:22:17;8.05;;;2.33;;
75220;SDS011;63802;53.232;6.570;2023-10-09T14:25:03;4.57;;;2.08;;
75220;SDS011;63802;53.232;6.570;2023-10-09T14:27:38;10.73;;;2.83;;
75220;SDS011;63802;53.232;6.570;2023-10-09T14:30:03;6.18;;;2.67;;
75220;SDS011;63802;53.232;6.570;2023-10-09T14:32:48;11.32;;;2.50;;
75220;SDS011;63802;53.232;6.570;2023-10-09T14:35:16;8.60;;;2.67;;
75220;SDS011;63802;53.232;6.570;2023-10-09T14:37:46;11.35;;;3.40;;
75220;SDS011;63802;53.232;6.570;2023-10-09T14:40:16;5.65;;;2.13;;
75220;SDS011;63802;53.232;6.570;2023-10-09T14:42:57;5.38;;;2.40;;
75220;SDS011;63802;53.232;6.570;2023-10-09T14:45:25;8.18;;;2.63;;
75220;SDS011;63802;53.232;6.570;2023-10-09T14:47:54;11.05;;;2.28;;
75220;SDS011;63802;53.232;6.570;2023-10-09T14:50:24;9.00;;;2.05;;
75220;SDS011;63802;53.232;6.570;2023-10-09T14:52:57;10.43;;;2.20;;
75220;SDS011;63802;53.232;6.570;2023-10-09T14:55:57;10.20;;;2.05;;
75220;SDS011;63802;53.232;6.570;2023-10-09T14:58:33;9.25;;;2.17;;
75220;SDS011;63802;53.232;6.570;2023-10-09T15:01:09;5.07;;;1.88;;
75220;SDS011;63802;53.232;6.570;2023-10-09T15:03:44;12.38;;;2.72;;
75220;SDS011;63802;53.232;6.570;2023-10-09T15:06:24;6.30;;;2.13;;
75220;SDS011;63802;53.232;6.570;2023-10-09T15:08:53;6.68;;;2.10;;
75220;SDS011;63802;53.232;6.570;2023-10-09T15:11:46;6.75;;;2.20;;
75220;SDS011;63802;53.232;6.570;2023-10-09T15:14:22;8.90;;;2.40;;
75220;SDS011;63802;53.232;6.570;2023-10-09T15:16:51;6.50;;;2.38;;
75220;SDS011;63802;53.232;6.570;2023-10-09T15:19:32;6.60;;;1.92;;
75220;SDS011;63802;53.232;6.570;2023-10-09T15:21:57;9.75;;;1.85;;
75220;SDS011;63802;53.232;6.570;2023-10-09T15:24:26;6.47;;;2.10;;
75220;SDS011;63802;53.232;6.570;2023-10-09T15:27:05;11.32;;;2.65;;
75220;SDS011;63802;53.232;6.570;2023-10-09T15:29:31;5.97;;;2.30;;
75220;SDS011;63802;53.232;6.570;2023-10-09T15:32:10;9.40;;;2.40;;
75220;SDS011;63802;53.232;6.570;2023-10-09T15:34:47;10.48;;;2.40;;
75220;SDS011;63802;53.232;6.570;2023-10-09T15:37:27;6.00;;;2.08;;
75220;SDS011;63802;53.232;6.570;2023-10-09T15:39:56;26.30;;;2.45;;
75220;SDS011;63802;53.232;6.570;2023-10-09T15:42:42;5.95;;;2.22;;
75220;SDS011;63802;53.232;6.570;2023-10-09T15:45:20;8.63;;;2.22;;
75220;SDS011;63802;53.232;6.570;2023-10-09T15:47:50;7.25;;;2.17;;